San Antonio, TX (78246)

7:34 PM CDT on August 27, 2016 (GMT -0500)
Grey Oak | | Change Station

Elev 925 ft 29.53 °N, 98.51 °W | Updated 41 seconds ago

Scattered Clouds
Scattered Clouds
90.1 °F
Feels Like 96 °F
N
2.2
Wind Variable Wind from East

Today
High -- | Low -- °F
--% Chance of Precip.
Yesterday
High -- | Low -- °F
Precip. -- in
Pressure 29.87 in
Visibility 10.0 miles
Clouds Few 5000 ft
Scattered Clouds 25000 ft
Heat Index 96 °F
Dew Point 70 °F
Humidity 52%
Rainfall 0.00 in
Snow Depth Not available.
7:08 AM 8:01 PM
Waning Crescent, 20% visible
METAR KSAT 272351Z 11007KT 10SM FEW050 SCT250 30/21 A2993 RMK AO2 SLP115 TCU DSNT NW AND N T03000211 10328 20300 55000 $
Pressure 29.87 in
Visibility 10.0 miles
Clouds Few 5000 ft
Scattered Clouds 25000 ft
Heat Index 96 °F
Dew Point 70 °F
Humidity 52%
Rainfall 0.00 in
Snow Depth Not available.
7:08 AM 8:01 PM
Waning Crescent, 20% visible
METAR KSAT 272351Z 11007KT 10SM FEW050 SCT250 30/21 A2993 RMK AO2 SLP115 TCU DSNT NW AND N T03000211 10328 20300 55000 $

10-Day Weather Forecast

Almanac

Astronomy

Aug. 27, 2016 Rise Set
Actual Time
Civil Twilight
Nautical Twilight
Astronomical Twilight
Moon
Length of Visible Light
Length of Day
Tomorrow will be .
, % of the Moon is Illuminated

Today's Extremes

State Highs State Lows

Community

WunderPhotos

Upload Photos

1,935,475 photos uploaded!

WunderBlog® & News

Nearby

Air Quality

  Air Quality AQ Index Pollutant
Not available.

Snow Depth

Station Depth Elevation

Earthquake Activity

City Distance Mag. Time & Date
Minimum magnitude displayed is 2.5.

Coastal Water Temperatures

Place Temperature

Stations

Nearby Weather Stations

Station Location Temp. Windchill Dew Point Humidity Wind Precip. Elev Updated Type
                   

Watches & Warnings

There are currently no watches in effect.